Superfast Xi — SYCF — position and weather

sailwx.info

Track history (hours):
 
Tides and Currents Weather Stations Pressure Air Temp Water Temp Dewpoint Dewpoint Depression Visibility Wind Speed Wind Dir Waves Ship Positions

Superfast Xi

Last reported at 2015-May-23 04:33 UTC. Time now 2015-May-23 05:50 UTC.
Position N 39°40' E 019°59'.

Length 200 m; draft 6.6 m.

Type: Passenger vessel. MMSI: 239918000.

Date/timePositionNaut miles runAvg speedWind from/ knotsBaromVisibWave heightAir tempDewpointWater temp
2015-May-23 04:33N 39°40' E 019°59'2020.4
2015-May-23 03:33N 39°57' E 019°44'57 1.1
2015-May-21 01:33N 40°34' E 018°47'2524.1
2015-May-21 00:30N 40°17' E 019°12'2324.1
2015-May-20 23:34N 40°03' E 019°35'2423.7
2015-May-20 22:33N 39°48' E 019°59'2019.2
2015-May-20 21:31N 39°30' E 020°12'3 3.2
2015-May-20 20:33N 39°30' E 020°15'8 7.9
2015-May-20 19:33N 39°22' E 020°12'2424.1
2015-May-20 18:33N 38°59' E 020°22'2724.0
2015-May-20 17:26N 38°33' E 020°30'  
2015-May-18 07:33N 39°19' E 020°14'1110.8
2015-May-18 06:33N 39°30' E 020°15'1413.8
2015-May-18 05:33N 39°37' E 020°01'2120.9
2015-May-18 04:34N 39°55' E 019°47'2727.3
2015-May-18 03:34N 40°13' E 019°19'2727.1
2015-May-18 02:34N 40°30' E 018°52'28 1.0
2015-May-16 23:25N 40°13' E 019°20'2327.2
2015-May-16 22:33N 39°58' E 019°43'2121.1
2015-May-16 21:33N 39°40' E 019°59'1716.7
2015-May-16 20:33N 39°29' E 020°15'3 2.4
2015-May-16 19:28N 39°30' E 020°12'1921.0
2015-May-16 18:33N 39°12' E 020°18'40 4.3
2015-May-16 09:10N 38°33' E 020°32'4423.8
2015-May-16 07:20N 39°15' E 020°17'1515.9
2015-May-16 06:24N 39°30' E 020°15'0 0.1
2015-May-16 05:33N 39°30' E 020°15'1918.6
2015-May-16 04:33N 39°43' E 019°57'2120.8
2015-May-16 03:33N 39°59' E 019°40'2423.7
2015-May-16 02:33N 40°12' E 019°15'2323.4
2015-May-16 01:34N 40°26' E 018°50'2322.8
2015-May-16 00:33N 40°40' E 018°26'25 0.5
2015-May-14 01:19N 40°28' E 018°55'1824.0
2015-May-14 00:34N 40°17' E 019°13'2424.4
2015-May-13 23:34N 40°01' E 019°38'2222.2
2015-May-13 22:33N 39°45' E 019°58'2018.2
2015-May-13 21:26N 39°30' E 020°15'0 0.5
2015-May-13 20:33N 39°30' E 020°15'9 9.1
2015-May-13 19:33N 39°21' E 020°13'2423.5
2015-May-13 18:33N 38°58' E 020°23'  
Track history (hours):
 
Tides and Currents Weather Stations Pressure Air Temp Water Temp Dewpoint Dewpoint Depression Visibility Wind Speed Wind Dir Waves Ship Positions

Superfast Xi

Last reported at 2015-May-23 04:33 UTC. Time now 2015-May-23 05:50 UTC.
Position N 39°40' E 019°59'.

Length 200 m; draft 6.6 m.

Type: Passenger vessel. MMSI: 239918000.

Date/timePositionNaut miles runAvg speedWind from/ knotsBaromVisibWave heightAir tempDewpointWater temp
2015-May-23 04:33N 39°40' E 019°59'2020.4
2015-May-23 03:33N 39°57' E 019°44'57 1.1
2015-May-21 01:33N 40°34' E 018°47'2524.1
2015-May-21 00:30N 40°17' E 019°12'2324.1
2015-May-20 23:34N 40°03' E 019°35'2423.7
2015-May-20 22:33N 39°48' E 019°59'2019.2
2015-May-20 21:31N 39°30' E 020°12'3 3.2
2015-May-20 20:33N 39°30' E 020°15'8 7.9
2015-May-20 19:33N 39°22' E 020°12'2424.1
2015-May-20 18:33N 38°59' E 020°22'2724.0
2015-May-20 17:26N 38°33' E 020°30'  
2015-May-18 07:33N 39°19' E 020°14'1110.8
2015-May-18 06:33N 39°30' E 020°15'1413.8
2015-May-18 05:33N 39°37' E 020°01'2120.9
2015-May-18 04:34N 39°55' E 019°47'2727.3
2015-May-18 03:34N 40°13' E 019°19'2727.1
2015-May-18 02:34N 40°30' E 018°52'28 1.0
2015-May-16 23:25N 40°13' E 019°20'2327.2
2015-May-16 22:33N 39°58' E 019°43'2121.1
2015-May-16 21:33N 39°40' E 019°59'1716.7
2015-May-16 20:33N 39°29' E 020°15'3 2.4
2015-May-16 19:28N 39°30' E 020°12'1921.0
2015-May-16 18:33N 39°12' E 020°18'40 4.3
2015-May-16 09:10N 38°33' E 020°32'4423.8
2015-May-16 07:20N 39°15' E 020°17'1515.9
2015-May-16 06:24N 39°30' E 020°15'0 0.1
2015-May-16 05:33N 39°30' E 020°15'1918.6
2015-May-16 04:33N 39°43' E 019°57'2120.8
2015-May-16 03:33N 39°59' E 019°40'2423.7
2015-May-16 02:33N 40°12' E 019°15'2323.4
2015-May-16 01:34N 40°26' E 018°50'2322.8
2015-May-16 00:33N 40°40' E 018°26'25 0.5
2015-May-14 01:19N 40°28' E 018°55'1824.0
2015-May-14 00:34N 40°17' E 019°13'2424.4
2015-May-13 23:34N 40°01' E 019°38'2222.2
2015-May-13 22:33N 39°45' E 019°58'2018.2
2015-May-13 21:26N 39°30' E 020°15'0 0.5
2015-May-13 20:33N 39°30' E 020°15'9 9.1
2015-May-13 19:33N 39°21' E 020°13'2423.5
2015-May-13 18:33N 38°58' E 020°23'  

Dump ship's entire track history